createdAt,value
2018-08-03T00:01:26.507Z,9.86
2018-08-03T00:07:22.017Z,9.56
2018-08-03T00:13:16.492Z,10.13
2018-08-03T00:19:11.488Z,10.07
2018-08-03T00:25:06.510Z,9.66
2018-08-03T00:31:01.480Z,9.97
2018-08-03T00:54:41.538Z,9.53
2018-08-03T00:54:41.618Z,9.68
2018-08-03T00:54:41.634Z,9.68
2018-08-03T00:54:41.659Z,9.68
2018-08-03T01:00:36.610Z,9.41
2018-08-03T01:06:31.519Z,8.59
2018-08-03T01:12:26.489Z,8.39
2018-08-03T01:18:21.548Z,8.58
2018-08-03T01:24:16.540Z,9.24
2018-08-03T01:30:11.566Z,8.56
2018-08-03T01:36:06.509Z,8.26
2018-08-03T01:42:01.522Z,9.54
2018-08-03T01:47:56.505Z,8.87
2018-08-03T01:53:51.605Z,10.93
2018-08-03T01:59:46.520Z,9.22
2018-08-03T02:05:41.526Z,9.82
2018-08-03T02:11:36.523Z,9.91
2018-08-03T02:17:31.528Z,8.37
2018-08-03T02:23:26.527Z,9.58
2018-08-03T02:29:21.531Z,8.96
2018-08-03T02:35:16.536Z,8.35
2018-08-03T02:41:11.611Z,8.73
2018-08-03T02:47:06.564Z,7.78
2018-08-03T02:53:01.623Z,8.09
2018-08-03T02:58:56.572Z,8
2018-08-03T03:04:51.637Z,8.37
2018-08-03T03:10:46.628Z,8.18
2018-08-03T03:16:41.564Z,8.03
2018-08-03T03:22:36.569Z,8.2
2018-08-03T03:28:31.550Z,8.01
2018-08-03T03:52:11.660Z,7.3
2018-08-03T03:52:11.760Z,7.09
2018-08-03T03:52:11.762Z,7.09
2018-08-03T03:52:11.770Z,7.09
2018-08-03T03:58:06.595Z,7.25
2018-08-03T04:04:01.581Z,5.91
2018-08-03T04:09:56.560Z,7.17
2018-08-03T04:15:51.583Z,6.6
2018-08-03T04:21:46.580Z,6.55
2018-08-03T04:27:41.601Z,6.2
2018-08-03T04:33:36.603Z,6.31
2018-08-03T04:39:31.578Z,6.28
2018-08-03T04:45:26.564Z,6.05
2018-08-03T04:51:21.601Z,6.93
2018-08-03T04:57:16.623Z,5.78
2018-08-03T05:03:11.681Z,5.92
2018-08-03T05:09:06.629Z,6.56
2018-08-03T05:15:01.638Z,7.08
2018-08-03T05:20:56.613Z,6.66
2018-08-03T05:26:51.647Z,7.43
2018-08-03T05:32:46.603Z,6.95
2018-08-03T05:38:41.601Z,6.47
2018-08-03T05:44:36.645Z,6.2
2018-08-03T05:50:31.618Z,7.2
2018-08-03T05:56:26.634Z,6.75
2018-08-03T06:02:21.632Z,7.26
2018-08-03T06:08:16.670Z,6.55
2018-08-03T06:14:11.641Z,6.62
2018-08-03T06:20:06.670Z,6.51
2018-08-03T06:26:01.624Z,6.29
2018-08-03T06:31:56.660Z,6.33
2018-08-03T06:55:36.657Z,6.5
2018-08-03T06:55:36.823Z,5.88
2018-08-03T06:55:36.843Z,5.88
2018-08-03T06:55:36.855Z,5.88
2018-08-03T07:01:31.650Z,5.8
2018-08-03T07:07:26.662Z,5.51
2018-08-03T07:13:21.637Z,5.76
2018-08-03T07:19:16.647Z,4.99
2018-08-03T07:25:11.667Z,5.9
2018-08-03T07:31:06.650Z,5.34
2018-08-03T07:37:01.789Z,5.76
2018-08-03T07:42:56.678Z,6.06
2018-08-03T07:48:51.668Z,5.26
2018-08-03T07:54:46.691Z,5
2018-08-03T08:00:41.658Z,5.49
2018-08-03T08:06:36.743Z,4.87
2018-08-03T08:12:31.656Z,5.67
2018-08-03T08:18:26.667Z,4.31
2018-08-03T08:24:21.657Z,4.43
2018-08-03T08:30:16.694Z,5.39
2018-08-03T08:36:11.699Z,4.49
2018-08-03T08:42:06.698Z,4.51
2018-08-03T08:48:01.704Z,4.21
2018-08-03T08:53:56.685Z,5.48
2018-08-03T08:59:51.710Z,3.97
2018-08-03T09:05:46.689Z,4.06
2018-08-03T09:11:41.697Z,4.23
2018-08-03T09:17:36.703Z,4.47
2018-08-03T09:23:31.702Z,3.75
2018-08-03T09:29:26.733Z,4.16
2018-08-03T09:53:06.718Z,4.35
2018-08-03T09:53:06.764Z,4.42
2018-08-03T09:53:06.779Z,4.42
2018-08-03T09:53:06.835Z,4.42
2018-08-03T09:59:01.696Z,4.42
2018-08-03T10:04:56.721Z,4.75
2018-08-03T10:10:51.778Z,4.75
2018-08-03T10:16:46.790Z,4.7
2018-08-03T10:22:41.740Z,4.46
2018-08-03T10:28:36.716Z,4.84
2018-08-03T10:34:31.756Z,4.1
2018-08-03T10:40:26.741Z,4.22
2018-08-03T10:46:21.758Z,4.9
2018-08-03T10:52:16.723Z,4.68
2018-08-03T10:58:11.765Z,4.74
2018-08-03T11:04:06.749Z,4.64
2018-08-03T11:10:01.815Z,4.25
2018-08-03T11:15:56.767Z,3.69
2018-08-03T11:21:51.771Z,3.77
2018-08-03T11:27:46.785Z,3.37
2018-08-03T11:33:41.766Z,3.81
2018-08-03T11:39:36.759Z,3.33
2018-08-03T11:45:31.745Z,3.82
2018-08-03T11:51:26.759Z,4.06
2018-08-03T11:57:21.860Z,4
2018-08-03T12:03:16.756Z,4.28
2018-08-03T12:09:11.775Z,3.77
2018-08-03T12:15:06.801Z,4.19
2018-08-03T12:21:01.808Z,4.11
2018-08-03T12:26:56.818Z,4.09
2018-08-03T12:32:51.771Z,4.17
2018-08-03T12:56:31.799Z,4.02
2018-08-03T12:56:31.885Z,3.82
2018-08-03T12:56:31.885Z,3.82
2018-08-03T12:56:31.973Z,3.82
2018-08-03T13:02:26.883Z,3.66
2018-08-03T13:08:21.980Z,4.01
2018-08-03T13:14:16.830Z,3.55
2018-08-03T13:20:11.815Z,3.79
2018-08-03T13:26:06.794Z,3.78
2018-08-03T13:32:01.800Z,3.75
2018-08-03T13:37:56.875Z,3.73
2018-08-03T13:43:51.820Z,3.51
2018-08-03T13:49:46.810Z,4.03
2018-08-03T13:55:41.814Z,3.74
2018-08-03T14:01:36.802Z,3.5
2018-08-03T14:07:31.826Z,3.66
2018-08-03T14:13:26.817Z,3.81
2018-08-03T14:19:21.839Z,3.96
2018-08-03T14:25:16.825Z,3.69
2018-08-03T14:31:11.864Z,4.23
2018-08-03T14:37:06.846Z,3.47
2018-08-03T14:43:01.929Z,4.05
2018-08-03T14:48:56.835Z,3.31
2018-08-03T14:54:51.830Z,4.44
2018-08-03T15:00:46.866Z,4.11
2018-08-03T15:06:41.892Z,4.24
2018-08-03T15:12:36.883Z,3.85
2018-08-03T15:18:31.855Z,3.82
2018-08-03T15:24:26.847Z,4.2
2018-08-03T15:30:21.855Z,4.05
2018-08-03T15:54:01.879Z,3.77
2018-08-03T15:54:01.994Z,3.9
2018-08-03T15:54:02.030Z,3.9
2018-08-03T15:54:02.049Z,3.9
2018-08-03T15:59:56.903Z,3.99
2018-08-03T16:05:51.906Z,4.6
2018-08-03T16:11:46.920Z,3.4
2018-08-03T16:17:41.888Z,3.6
2018-08-03T16:23:36.878Z,3.37
2018-08-03T16:29:31.953Z,4.22
2018-08-03T16:35:26.870Z,3.46
2018-08-03T16:41:21.910Z,3.81
2018-08-03T16:47:16.896Z,3.7
2018-08-03T16:53:11.876Z,4.2
2018-08-03T16:59:06.960Z,3.66
2018-08-03T17:05:01.947Z,3.78
2018-08-03T17:10:56.886Z,3.84
2018-08-03T17:16:51.919Z,3.99
2018-08-03T17:22:46.906Z,4.38
2018-08-03T17:28:41.918Z,4.16
2018-08-03T17:34:36.931Z,4.27
2018-08-03T17:40:31.945Z,4.45
2018-08-03T17:46:26.955Z,4.34
2018-08-03T17:52:21.932Z,4.37
2018-08-03T17:58:16.981Z,4.63
2018-08-03T18:04:11.965Z,5.43
2018-08-03T18:10:06.942Z,4.87
2018-08-03T18:16:01.964Z,4.82
2018-08-03T18:21:56.966Z,4.74
2018-08-03T18:27:51.941Z,5.55
2018-08-03T18:33:46.951Z,4.95
2018-08-03T18:57:26.995Z,5.81
2018-08-03T18:57:27.176Z,6.13
2018-08-03T18:57:27.176Z,6.13
2018-08-03T18:57:27.201Z,6.13
2018-08-03T19:03:21.959Z,5.36
2018-08-03T19:09:16.942Z,5.37
2018-08-03T19:15:11.986Z,6.38
2018-08-03T19:21:06.977Z,5.37
2018-08-03T19:27:01.963Z,6
2018-08-03T19:32:56.983Z,6.23
2018-08-03T19:38:51.985Z,6.76
2018-08-03T19:44:46.972Z,5.68
2018-08-03T19:50:42.023Z,5.87
2018-08-03T19:56:36.994Z,6.18
2018-08-03T20:02:31.984Z,5.77
2018-08-03T20:08:27.028Z,6.19
2018-08-03T20:14:22.046Z,6.55
2018-08-03T20:20:17.019Z,6.4
2018-08-03T20:26:12.028Z,6.36
2018-08-03T20:32:07.037Z,6.02
2018-08-03T20:38:01.986Z,6.4
2018-08-03T20:43:56.995Z,5.97
2018-08-03T20:49:52.002Z,7.23
2018-08-03T20:55:46.994Z,6.24
2018-08-03T21:01:42.033Z,6.21
2018-08-03T21:07:37.055Z,7.07
2018-08-03T21:13:32.015Z,6.67
2018-08-03T21:19:27.049Z,6.52
2018-08-03T21:25:22.038Z,6.81
2018-08-03T21:31:17.028Z,6.61
2018-08-03T22:00:52.046Z,6.42
2018-08-03T22:00:52.171Z,6.57
2018-08-03T22:00:52.176Z,6.57
2018-08-03T22:00:52.222Z,6.57
2018-08-03T22:00:52.224Z,6.57
2018-08-03T22:06:47.016Z,6.02
2018-08-03T22:12:42.020Z,6.49
2018-08-03T22:18:37.061Z,6.88
2018-08-03T22:24:32.104Z,6.95
2018-08-03T22:30:27.034Z,6.88
2018-08-03T22:36:22.030Z,6.57
2018-08-03T22:42:17.091Z,6.91
2018-08-03T22:48:12.119Z,6.16
2018-08-03T22:54:07.043Z,6.47
2018-08-03T23:00:02.246Z,7.14
2018-08-03T23:05:57.059Z,6.2
2018-08-03T23:11:52.069Z,6.46
2018-08-03T23:17:47.039Z,6.49
2018-08-03T23:23:42.042Z,6.43
2018-08-03T23:29:37.121Z,6.72
2018-08-03T23:35:32.667Z,6.66
2018-08-03T23:41:27.092Z,6.47
2018-08-03T23:47:22.150Z,6.94
2018-08-03T23:53:17.094Z,6.81
2018-08-03T23:59:12.069Z,6.55
